Mount Sterling, KY

11:04 PM EDT on March 30, 2015 (GMT -0400)
Old Fogg Pike | | Change Station
CLOSE
Current Station
Personal Weather Station
Location: Mount Sterling, KY
Elevation: 1032 ft
Nearby Weather Stations

Elev 1032 ft 38.03 °N, 83.97 °W | Updated 8 seconds ago

Clear
Clear
43.8 °F
Feels Like 44 °F
N
0.0
Wind Variable Wind from NW
Gusts 0.0 mph

Today
High -- | Low -- °F
--% Chance of Precip.
Yesterday
High -- | Low -- °F
Precip. -- in
7:24 AM 7:56 PM
Waxing Gibbous, 84% visible
Pressure 30.09 in
Visibility 10.0 miles
Clouds Clear
Windchill 44 °F
Dew Point 31 °F
Humidity 61%
Rainfall 0.00 in
Snow Depth Not available.
UV 0 out of 12
Pollen 9.60 out of 12
Air Quality Not available.
Flu Activity Not available.
METAR KIOB 310255Z AUTO 23004KT 10SM CLR 07/M01 A3009 RMK AO2

More Conditions Fewer Conditions

Pressure 30.09 in
Visibility 10.0 miles
Clouds Clear
Windchill 44 °F
Dew Point 31 °F
Humidity 61%
Rainfall 0.00 in
Snow Depth Not available.
UV 0 out of 12
Pollen 9.60 out of 12
Air Quality Not available.
Flu Activity Not available.
METAR KIOB 310255Z AUTO 23004KT 10SM CLR 07/M01 A3009 RMK AO2

More Conditions Fewer Conditions

10-Day Weather Forecast

Almanac

Astronomy

Mar. 30, 2015 Rise Set
Actual Time
Civil Twilight
Nautical Twilight
Astronomical Twilight
Moon
Length of Visible Light
Length of Day
Tomorrow will be .
, % of the Moon is Illuminated

Today's Extremes

State Highs State Lows

Community

WunderPhotos

Upload Photos

1,809,689 photos uploaded!

WunderBlogs® & News

Nearby

Air Quality

  Air Quality AQ Index Pollutant
Not available.

Snow Depth

Station Depth Elevation

Earthquake Activity

City Distance Mag. Time & Date
Minimum magnitude displayed is 2.5.

Coastal Water Temperatures

Place Temperature

Stations

Nearby Weather Stations

Station Location Temp. Windchill Dew Point Humidity Wind Precip. Elev Updated Type